Time;durP1;ratioP1;P1;durP2;ratioP2;P2;SDS_P1;SDS_P2;PMS_P1;PMS_P2;Temp;Humidity;BMP_temperature;BMP_pressure;BME280_temperature;BME280_humidity;BME280_pressure;Samples;Min_cycle;Max_cycle;Signal;HPM_P1;HPM_P2
2022/05/29 00:02:14;;;;;;;;;10.80;10.80;;;;;15.18;82.89;99191.75;5067021;28;8850;-82
2022/05/29 00:04:43;;;;;;;;;12.60;12.60;;;;;15.12;81.95;99186.66;5050504;28;8847;-79
2022/05/29 00:07:14;;;;;;;;;14.60;14.00;;;;;15.01;81.90;99186.06;5066915;28;8934;-77
2022/05/29 00:09:47;;;;;;;;;11.40;11.40;;;;;14.72;82.95;99181.47;5067273;28;8850;-78
2022/05/29 00:12:19;;;;;;;;;11.40;10.80;;;;;14.56;83.92;99202.78;5018032;28;8945;-79
2022/05/29 00:14:49;;;;;;;;;12.40;11.40;;;;;14.36;85.77;99199.75;5068196;28;8838;-82
2022/05/29 00:17:19;;;;;;;;;11.00;11.00;;;;;14.32;86.88;99198.09;5068591;28;8862;-78
2022/05/29 00:19:49;;;;;;;;;12.00;12.00;;;;;14.12;86.19;99193.25;5067365;28;8846;-80
2022/05/29 00:22:19;;;;;;;;;12.40;12.00;;;;;13.86;87.85;99199.91;5067652;28;8854;-79
2022/05/29 00:24:50;;;;;;;;;14.60;13.20;;;;;13.83;88.80;99198.19;5049379;28;8953;-78
2022/05/29 00:27:21;;;;;;;;;16.00;14.00;;;;;13.81;88.91;99196.50;5048921;28;8852;-79
2022/05/29 00:29:50;;;;;;;;;12.60;12.60;;;;;13.80;89.63;99187.78;5051122;28;8974;-80
2022/05/29 00:32:19;;;;;;;;;12.40;12.40;;;;;14.07;88.31;99185.50;5050269;28;8864;-81
2022/05/29 00:34:48;;;;;;;;;11.20;10.60;;;;;13.89;88.99;99189.34;5069749;28;8859;-77
2022/05/29 00:37:17;;;;;;;;;13.80;12.60;;;;;13.72;91.17;99187.03;5034890;28;9005;-78
2022/05/29 00:39:46;;;;;;;;;14.00;13.40;;;;;13.84;90.27;99181.56;5050552;28;8848;-81
2022/05/29 00:42:16;;;;;;;;;12.60;11.20;;;;;13.82;90.44;99179.88;5033551;28;8875;-82
2022/05/29 00:44:46;;;;;;;;;12.60;12.00;;;;;13.78;90.08;99179.06;5049739;28;8860;-78
2022/05/29 00:47:17;;;;;;;;;17.60;15.40;;;;;13.74;91.94;99187.00;5008154;28;9803;-72
2022/05/29 00:49:48;;;;;;;;;11.00;11.00;;;;;13.91;90.97;99173.56;5026223;28;8858;-72
2022/05/29 00:52:19;;;;;;;;;15.00;15.00;;;;;13.88;90.73;99171.03;5005046;28;9016;-77
2022/05/29 00:54:54;;;;;;;;;12.60;12.40;;;;;14.12;90.99;99170.53;4992452;28;8868;-76
2022/05/29 00:57:28;;;;;;;;;15.00;14.00;;;;;14.30;88.76;99176.28;5025270;28;9756;-77
2022/05/29 01:00:01;;;;;;;;;19.20;15.80;;;;;14.47;88.15;99174.13;5025166;28;8852;-78
2022/05/29 01:02:30;;;;;;;;;18.40;16.60;;;;;14.79;86.92;99160.28;5007828;28;8878;-76
2022/05/29 01:04:59;;;;;;;;;16.00;15.00;;;;;14.98;85.53;99154.59;5024039;28;9013;-76
2022/05/29 01:07:30;;;;;;;;;13.40;13.00;;;;;14.97;85.25;99155.50;4991712;28;8949;-76
2022/05/29 01:10:01;;;;;;;;;15.40;13.20;;;;;15.22;83.57;99147.88;5008716;28;8945;-76
2022/05/29 01:12:41;;;;;;;;;20.00;15.20;;;;;15.27;82.93;99145.13;5009900;28;8898;-76
2022/05/29 01:15:24;;;;;;;;;15.20;13.60;;;;;15.46;82.78;99146.34;5028660;28;8859;-77
2022/05/29 01:18:00;;;;;;;;;16.40;15.80;;;;;15.33;83.43;99139.69;5035048;28;8837;-77
2022/05/29 01:20:51;;;;;;;;;18.40;18.40;;;;;15.31;82.84;99136.25;5050281;28;8849;-78
2022/05/29 01:23:36;;;;;;;;;12.80;10.80;;;;;15.49;82.82;99133.13;5015822;28;8857;-78
2022/05/29 01:26:34;;;;;;;;;15.20;15.00;;;;;15.72;82.51;99123.75;5050672;28;8877;-77
2022/05/29 01:29:07;;;;;;;;;17.60;17.00;;;;;15.85;80.74;99121.66;5051731;28;8848;-77
2022/05/29 01:31:47;;;;;;;;;14.00;14.00;;;;;16.03;80.62;99121.13;5051684;28;8893;-76
2022/05/29 01:34:32;;;;;;;;;17.80;16.80;;;;;16.10;79.37;99106.03;5033836;28;8930;-76
2022/05/29 01:37:11;;;;;;;;;19.00;17.80;;;;;16.18;79.17;99098.75;5051197;28;8966;-78
2022/05/29 01:39:51;;;;;;;;;14.40;14.40;;;;;16.26;78.96;99091.50;5056236;28;9567;-76
2022/05/29 01:42:27;;;;;;;;;18.80;17.80;;;;;16.36;78.89;99094.69;5069931;28;9625;-78
2022/05/29 01:45:02;;;;;;;;;16.20;15.40;;;;;16.46;78.64;99093.47;5069755;28;8846;-78
2022/05/29 01:47:39;;;;;;;;;14.00;14.00;;;;;16.45;77.91;99089.16;5071397;28;8850;-77
2022/05/29 01:50:14;;;;;;;;;16.40;16.40;;;;;16.41;77.49;99071.75;5071018;28;8972;-77
2022/05/29 01:52:48;;;;;;;;;17.80;17.80;;;;;16.44;78.07;99070.75;5072415;28;8915;-77
2022/05/29 01:55:22;;;;;;;;;20.20;19.00;;;;;16.46;78.26;99066.31;5061545;28;8829;-76
2022/05/29 01:57:56;;;;;;;;;22.00;18.00;;;;;16.46;77.93;99066.31;5032516;28;8862;-75
2022/05/29 02:00:27;;;;;;;;;18.80;18.40;;;;;16.50;78.01;99063.53;5053632;28;8913;-78
2022/05/29 02:03:03;;;;;;;;;22.60;20.20;;;;;16.54;77.53;99059.00;5072767;28;8862;-76
2022/05/29 02:05:38;;;;;;;;;17.20;17.20;;;;;16.54;77.38;99048.47;5070474;28;8830;-76
2022/05/29 02:08:20;;;;;;;;;19.40;17.60;;;;;16.59;77.65;99050.97;5069201;28;8952;-77
2022/05/29 02:10:55;;;;;;;;;16.80;16.20;;;;;16.59;76.85;99048.34;5069356;28;8838;-75
2022/05/29 02:13:28;;;;;;;;;18.80;17.40;;;;;16.35;77.05;99043.84;5068984;28;8880;-76
2022/05/29 02:16:05;;;;;;;;;20.20;16.80;;;;;16.45;77.94;99036.50;5069101;28;8858;-76
2022/05/29 02:18:39;;;;;;;;;19.20;19.20;;;;;16.30;77.83;99037.88;5069783;28;8866;-77
2022/05/29 02:21:15;;;;;;;;;21.00;21.00;;;;;16.33;77.99;99032.50;5070409;28;8839;-77
2022/05/29 02:23:52;;;;;;;;;22.20;20.20;;;;;16.36;77.99;99034.16;5069997;28;8870;-75
2022/05/29 02:26:25;;;;;;;;;22.40;18.20;;;;;16.25;77.85;99023.13;5034971;28;8968;-76
2022/05/29 02:28:58;;;;;;;;;20.00;18.80;;;;;16.33;78.03;99018.47;5069309;28;8842;-78
2022/05/29 02:31:42;;;;;;;;;20.20;18.00;;;;;16.37;78.26;99018.34;5070021;28;8831;-77
2022/05/29 02:34:19;;;;;;;;;23.00;22.20;;;;;15.79;80.62;99028.06;5070685;28;8893;-78
2022/05/29 02:36:54;;;;;;;;;22.80;20.20;;;;;15.52;81.59;99027.94;5069052;28;8846;-78
2022/05/29 02:39:34;;;;;;;;;20.40;19.60;;;;;15.32;84.20;99031.13;5068813;28;8834;-77
2022/05/29 02:42:17;;;;;;;;;22.00;22.00;;;;;14.67;87.92;99029.38;5070251;28;8858;-76
2022/05/29 02:44:55;;;;;;;;;25.80;22.40;;;;;14.41;90.58;99040.50;5067783;28;8926;-76
2022/05/29 02:47:37;;;;;;;;;20.80;20.80;;;;;14.33;91.05;99035.44;5073267;28;8818;-75
2022/05/29 02:50:21;;;;;;;;;19.80;19.80;;;;;14.22;93.13;99050.56;5050770;28;9022;-77
2022/05/29 02:52:53;;;;;;;;;21.20;19.40;;;;;14.42;91.05;99058.81;5047813;28;8950;-77
2022/05/29 02:55:23;;;;;;;;;25.20;22.00;;;;;14.71;88.68;99053.78;5027373;28;9666;-77
2022/05/29 02:57:55;;;;;;;;;21.20;19.00;;;;;14.90;87.96;99062.06;5010747;28;8862;-77
2022/05/29 03:00:24;;;;;;;;;19.00;19.00;;;;;15.15;86.25;99046.50;5010345;28;9012;-77
2022/05/29 03:03:08;;;;;;;;;23.40;22.60;;;;;15.11;85.57;99045.72;4994542;28;8857;-77
2022/05/29 03:05:50;;;;;;;;;22.00;20.00;;;;;15.25;84.09;99036.59;5032943;28;8889;-77
2022/05/29 03:08:33;;;;;;;;;23.00;21.40;;;;;14.88;86.93;99030.59;5029838;28;8824;-76
2022/05/29 03:11:09;;;;;;;;;18.20;18.20;;;;;14.85;86.80;99035.06;5012960;28;8855;-75
2022/05/29 03:13:49;;;;;;;;;22.00;20.20;;;;;14.72;87.49;99032.72;5030629;28;8831;-76
2022/05/29 03:16:27;;;;;;;;;22.60;20.00;;;;;14.88;86.22;99033.22;5030572;28;8909;-79
2022/05/29 03:19:05;;;;;;;;;19.80;17.40;;;;;14.88;86.51;99034.97;5013848;28;8835;-74
2022/05/29 03:21:44;;;;;;;;;23.20;22.00;;;;;14.48;88.77;99026.34;5046636;28;8839;-76
2022/05/29 03:24:19;;;;;;;;;21.20;19.80;;;;;14.63;88.71;99019.88;5047124;28;8843;-76
2022/05/29 03:26:58;;;;;;;;;46.00;39.25;;;;;14.98;87.08;99018.94;5033825;28;8866;-78
2022/05/29 03:29:31;;;;;;;;;25.20;23.60;;;;;15.04;84.89;99017.91;5069628;28;9561;-77
2022/05/29 03:32:00;;;;;;;;;22.80;20.00;;;;;14.60;87.24;99004.19;5068155;28;8870;-76
2022/05/29 03:34:31;;;;;;;;;27.00;22.80;;;;;14.14;90.97;99006.16;5067012;28;8948;-79
2022/05/29 03:37:00;;;;;;;;;19.80;19.60;;;;;14.44;89.79;99008.91;5069557;28;8850;-77
2022/05/29 03:39:29;;;;;;;;;27.00;24.00;;;;;14.69;87.65;99013.56;5050627;28;8854;-76
2022/05/29 03:41:57;;;;;;;;;15.40;15.40;;;;;14.77;86.55;99012.47;5067652;28;8826;-77
2022/05/29 03:44:26;;;;;;;;;23.80;23.20;;;;;14.35;89.00;99009.16;5051119;28;8957;-77
2022/05/29 03:46:56;;;;;;;;;21.20;19.80;;;;;14.11;90.55;99002.75;5051140;28;8917;-77
2022/05/29 03:49:26;;;;;;;;;22.00;19.40;;;;;13.97;91.09;98996.06;5050517;28;8921;-75
2022/05/29 03:51:57;;;;;;;;;17.80;17.80;;;;;14.09;90.68;98999.31;5069068;28;8830;-78
2022/05/29 03:54:26;;;;;;;;;19.60;19.40;;;;;14.20;89.94;98990.28;5084464;28;8858;-76
2022/05/29 03:56:54;;;;;;;;;21.20;21.00;;;;;14.27;89.61;98980.47;5064003;28;8935;-76
2022/05/29 03:59:23;;;;;;;;;20.60;20.20;;;;;14.45;87.85;98987.03;5030996;28;8918;-77
2022/05/29 04:01:51;;;;;;;;;18.20;17.40;;;;;14.67;87.68;98984.78;5047131;28;8904;-76
2022/05/29 04:04:20;;;;;;;;;19.40;18.60;;;;;14.78;85.72;99000.22;5048937;28;8997;-75
2022/05/29 04:06:48;;;;;;;;;21.80;21.40;;;;;14.75;85.71;99003.78;5038121;28;8988;-76
2022/05/29 04:12:05;;;;;;;;;18.80;18.80;;;;;14.51;86.72;99015.75;5083550;28;8843;-77
2022/05/29 04:14:37;;;;;;;;;26.60;23.80;;;;;14.46;87.19;99008.88;5066841;28;8834;-77
2022/05/29 04:17:31;;;;;;;;;19.60;19.60;;;;;14.27;88.50;99005.84;5073517;28;8870;-76
2022/05/29 04:20:00;;;;;;;;;21.80;20.20;;;;;14.44;88.12;99001.03;5051459;28;9721;-77
2022/05/29 04:22:28;;;;;;;;;18.80;16.40;;;;;14.56;86.60;98995.50;5049688;28;8878;-76
2022/05/29 04:24:58;;;;;;;;;16.80;16.80;;;;;14.68;86.64;98986.47;5067514;28;8866;-77
2022/05/29 04:27:27;;;;;;;;;16.80;16.80;;;;;14.91;85.08;98983.22;5068355;28;9635;-77
2022/05/29 04:29:55;;;;;;;;;17.80;16.20;;;;;14.99;84.25;98975.16;5066493;28;8887;-77
2022/05/29 04:35:11;;;;;;;;;20.40;19.40;;;;;15.14;83.70;98995.75;5066630;28;8951;-77
2022/05/29 04:37:39;;;;;;;;;17.60;16.80;;;;;15.07;84.14;98998.59;5067775;28;8872;-75
2022/05/29 04:40:11;;;;;;;;;18.00;15.20;;;;;15.30;82.50;98998.78;5067727;28;8854;-76
2022/05/29 04:42:40;;;;;;;;;18.00;17.60;;;;;15.34;81.83;98995.16;5036443;28;8842;-75
2022/05/29 04:45:09;;;;;;;;;18.60;18.60;;;;;15.56;81.93;98995.41;5052572;28;8959;-77
2022/05/29 04:47:38;;;;;;;;;15.20;14.40;;;;;15.39;81.73;98989.78;5073685;28;8862;-77
2022/05/29 04:50:08;;;;;;;;;19.40;18.80;;;;;15.29;82.12;98994.47;5074343;28;8854;-75
2022/05/29 04:52:36;;;;;;;;;20.80;18.80;;;;;15.00;84.31;98985.59;5053832;28;9560;-77
2022/05/29 04:55:06;;;;;;;;;16.40;13.00;;;;;14.90;84.12;98978.91;5074149;28;8865;-76
2022/05/29 04:57:43;;;;;;;;;17.20;16.20;;;;;15.03;84.58;98979.44;5043811;28;8922;-79
2022/05/29 05:00:13;;;;;;;;;17.60;17.60;;;;;15.13;83.75;98970.38;5032727;28;8962;-77
2022/05/29 05:02:42;;;;;;;;;17.80;17.80;;;;;14.79;85.68;98957.34;5033185;28;8869;-76
2022/05/29 05:05:12;;;;;;;;;23.20;20.60;;;;;14.35;88.08;98952.31;5030131;28;8884;-77
2022/05/29 05:07:41;;;;;;;;;17.80;17.40;;;;;14.06;90.99;98953.03;5030735;28;8876;-76
2022/05/29 05:10:15;;;;;;;;;18.60;18.20;;;;;13.75;91.82;98952.91;5046125;28;8919;-76
2022/05/29 05:12:46;;;;;;;;;20.20;20.20;;;;;13.55;93.36;98943.72;5054011;28;8842;-75
2022/05/29 05:15:17;;;;;;;;;22.60;20.80;;;;;13.78;93.79;98951.09;5046518;28;8872;-76
2022/05/29 05:17:46;;;;;;;;;18.40;17.00;;;;;14.25;90.93;98966.53;5033682;28;8882;-76
2022/05/29 05:20:15;;;;;;;;;17.80;17.80;;;;;14.68;88.39;98969.88;5040863;28;8877;-75
2022/05/29 05:22:43;;;;;;;;;15.40;14.60;;;;;15.05;86.20;98977.63;5043789;28;8984;-75
2022/05/29 05:25:14;;;;;;;;;22.60;18.40;;;;;15.36;84.19;98980.22;5019412;28;8878;-78
2022/05/29 05:27:42;;;;;;;;;23.00;19.80;;;;;15.52;82.10;98983.28;5034501;28;8889;-75
2022/05/29 05:30:13;;;;;;;;;56.75;47.00;;;;;15.60;81.74;98988.28;5067483;28;8983;-80
2022/05/29 05:32:43;;;;;;;;;36.40;33.20;;;;;15.75;80.27;98987.84;5031878;28;8845;-80
2022/05/29 05:35:12;;;;;;;;;29.20;26.60;;;;;15.99;80.30;98990.63;5015032;28;9712;-81
2022/05/29 05:37:42;;;;;;;;;23.60;20.80;;;;;16.22;80.03;98973.22;5024223;28;8888;-80
2022/05/29 05:40:14;;;;;;;;;24.40;22.60;;;;;16.44;77.96;98973.38;4996114;28;8895;-81
2022/05/29 05:42:43;;;;;;;;;19.00;17.00;;;;;15.93;77.64;98965.38;5023737;28;8876;-79
2022/05/29 05:45:14;;;;;;;;;19.40;16.40;;;;;15.90;78.05;98938.34;4999210;28;8853;-78
2022/05/29 05:47:43;;;;;;;;;16.60;16.60;;;;;15.98;77.85;98925.78;5011493;28;8861;-80
2022/05/29 05:50:12;;;;;;;;;17.20;16.60;;;;;16.07;78.67;98911.50;5029105;28;8890;-80
2022/05/29 05:52:41;;;;;;;;;20.20;19.00;;;;;16.30;78.53;98906.31;5012710;28;8861;-78
2022/05/29 05:55:12;;;;;;;;;16.80;16.80;;;;;16.52;77.34;98882.75;5012671;28;8884;-80
2022/05/29 05:57:42;;;;;;;;;18.00;17.80;;;;;16.72;76.32;98883.78;5028694;28;8892;-80
2022/05/29 06:00:15;;;;;;;;;17.60;16.00;;;;;16.85;75.01;98877.19;5003698;28;13412;-74
2022/05/29 06:02:44;;;;;;;;;19.40;17.20;;;;;16.90;74.32;98866.47;5033870;28;8920;-74
2022/05/29 06:05:15;;;;;;;;;14.40;14.40;;;;;17.00;74.22;98867.00;5050072;28;9023;-73
2022/05/29 06:07:44;;;;;;;;;19.00;18.40;;;;;17.08;73.61;98871.06;5048560;28;8876;-73
2022/05/29 06:10:12;;;;;;;;;19.20;18.80;;;;;16.65;74.12;98874.38;5067451;28;9580;-82
2022/05/29 06:12:41;;;;;;;;;18.60;18.40;;;;;15.96;77.79;98873.25;5071185;28;8858;-81
2022/05/29 06:15:11;;;;;;;;;19.20;19.20;;;;;16.06;78.13;98872.94;5070027;28;8862;-80
2022/05/29 06:17:42;;;;;;;;;27.60;26.80;;;;;15.98;78.59;98868.78;5050569;28;8866;-82
2022/05/29 06:20:13;;;;;;;;;24.00;23.80;;;;;16.23;77.76;98860.06;5069175;28;8870;-79
2022/05/29 06:22:42;;;;;;;;;17.40;17.00;;;;;16.00;79.42;98854.75;5068511;28;8858;-80
2022/05/29 06:25:11;;;;;;;;;19.80;19.60;;;;;15.37;80.98;98882.13;5069355;28;8858;-79
2022/05/29 06:27:43;;;;;;;;;21.20;21.20;;;;;15.82;79.80;98899.13;5070850;28;8969;-81
2022/05/29 06:30:14;;;;;;;;;34.00;32.50;;;;;16.18;79.15;98910.22;5052722;28;8876;-82
2022/05/29 06:32:45;;;;;;;;;40.50;32.50;;;;;16.33;77.83;98910.59;5069047;28;8932;-84
2022/05/29 06:35:16;;;;;;;;;23.00;20.60;;;;;16.57;77.37;98920.25;5070453;28;8966;-80
2022/05/29 06:37:45;;;;;;;;;18.40;18.20;;;;;16.34;77.78;98917.59;5052457;28;8850;-78
2022/05/29 06:40:15;;;;;;;;;23.80;22.20;;;;;16.68;77.70;98934.84;5035224;28;8856;-77
2022/05/29 06:42:43;;;;;;;;;22.40;21.60;;;;;16.97;77.07;98954.03;5070064;28;8892;-76
2022/05/29 06:45:13;;;;;;;;;22.80;21.20;;;;;17.21;75.37;98978.63;5068741;28;8912;-79
2022/05/29 06:47:42;;;;;;;;;19.40;19.40;;;;;17.42;74.31;98992.78;5070625;28;8854;-78
2022/05/29 06:50:12;;;;;;;;;20.20;19.60;;;;;17.70;74.07;98988.16;5068190;28;8884;-80
2022/05/29 06:52:40;;;;;;;;;24.60;23.20;;;;;17.83;72.16;99001.75;5071229;28;8869;-79
2022/05/29 06:55:10;;;;;;;;;28.60;24.40;;;;;18.00;71.41;99010.81;5070928;28;8874;-80
2022/05/29 06:57:41;;;;;;;;;17.80;17.00;;;;;18.04;70.16;99000.06;5051138;28;8862;-78
2022/05/29 07:08:35;;;;;;;;;22.00;20.00;;;;;18.29;68.01;99001.72;5045345;28;8854;-81
2022/05/29 07:11:08;;;;;;;;;22.60;21.60;;;;;17.95;68.68;98997.78;5051667;28;8857;-81
2022/05/29 07:13:38;;;;;;;;;20.80;17.00;;;;;17.88;70.23;99001.59;5051552;28;8881;-81
2022/05/29 07:16:07;;;;;;;;;21.00;21.00;;;;;17.90;69.69;98995.34;5046357;28;8874;-77
2022/05/29 07:18:36;;;;;;;;;18.60;17.80;;;;;18.04;69.48;98981.59;5030091;28;8886;-78
2022/05/29 07:21:06;;;;;;;;;17.60;17.60;;;;;18.05;68.56;98963.97;5047132;28;8850;-77
2022/05/29 07:23:36;;;;;;;;;25.40;25.40;;;;;18.10;68.33;98965.50;5045486;28;8850;-77
2022/05/29 07:26:05;;;;;;;;;55.75;46.00;;;;;18.24;67.22;98948.25;4964319;28;9541;-79
2022/05/29 07:28:34;;;;;;;;;26.00;25.00;;;;;18.25;66.97;98939.44;5029580;28;8866;-78
2022/05/29 07:31:03;;;;;;;;;21.00;19.20;;;;;18.16;65.84;98934.53;4997120;28;8844;-78
2022/05/29 07:33:31;;;;;;;;;27.60;25.40;;;;;18.15;67.06;98935.44;5031332;28;8872;-80
2022/05/29 07:36:00;;;;;;;;;20.20;19.80;;;;;18.17;66.88;98923.91;5033784;28;8884;-78
2022/05/29 07:38:30;;;;;;;;;23.00;22.40;;;;;18.00;67.54;98914.06;5021670;28;9745;-79
2022/05/29 07:40:59;;;;;;;;;55.75;45.00;;;;;17.90;67.49;98900.38;5032396;28;8965;-76
2022/05/29 07:43:26;;;;;;;;;66.75;53.00;;;;;17.90;68.93;98907.41;5016783;28;8965;-79
2022/05/29 07:45:57;;;;;;;;;31.40;29.80;;;;;17.96;68.91;98908.94;5034470;28;8854;-78
2022/05/29 07:48:28;;;;;;;;;41.75;35.25;;;;;18.02;70.11;98914.00;5012963;28;8860;-78
2022/05/29 07:50:57;;;;;;;;;23.00;21.20;;;;;18.00;70.75;98936.94;4995176;28;9639;-81
2022/05/29 07:53:26;;;;;;;;;30.00;27.80;;;;;17.92;71.63;98939.91;5008796;28;8852;-80
2022/05/29 07:55:56;;;;;;;;;27.80;27.80;;;;;17.90;73.40;98928.53;5008296;28;8852;-78
2022/05/29 07:58:25;;;;;;;;;26.60;24.80;;;;;17.85;71.68;98909.41;5006921;28;8858;-78
2022/05/29 08:00:53;;;;;;;;;25.40;21.40;;;;;17.75;72.71;98895.72;4959163;28;8876;-79
2022/05/29 08:03:23;;;;;;;;;25.20;23.80;;;;;17.75;73.77;98895.72;5064983;28;8866;-80
2022/05/29 08:05:52;;;;;;;;;25.20;23.00;;;;;17.72;72.57;98888.75;5065762;28;9639;-79
2022/05/29 08:08:21;;;;;;;;;24.20;22.40;;;;;17.73;72.29;98886.97;5083201;28;8878;-77
2022/05/29 08:10:50;;;;;;;;;24.20;23.20;;;;;17.78;71.86;98890.28;5082541;28;8850;-77
2022/05/29 08:13:20;;;;;;;;;24.00;22.60;;;;;17.81;71.70;98881.41;5049992;28;8854;-79
2022/05/29 08:15:49;;;;;;;;;24.20;22.20;;;;;17.77;71.90;98877.16;5067916;28;8865;-78
2022/05/29 08:18:17;;;;;;;;;21.20;21.20;;;;;17.71;70.96;98873.00;5065643;28;9595;-79
2022/05/29 08:20:47;;;;;;;;;23.00;23.00;;;;;17.68;71.23;98860.81;5067276;28;8858;-79
2022/05/29 08:23:21;;;;;;;;;31.00;30.20;;;;;17.61;71.60;98800.47;5018105;28;8882;-79
2022/05/29 08:31:25;;;;;;;;;22.00;21.75;;;;;17.34;74.04;98829.66;5069371;28;9004;-78
2022/05/29 08:33:53;;;;;;;;;30.80;30.00;;;;;17.40;73.92;98858.41;5063167;28;8861;-77
2022/05/29 08:36:26;;;;;;;;;25.60;22.80;;;;;17.52;73.14;98841.25;5014704;28;8880;-78
2022/05/29 08:38:56;;;;;;;;;53.00;42.00;;;;;17.49;70.02;98792.16;5067780;28;8854;-78
2022/05/29 08:41:41;;;;;;;;;32.75;30.75;;;;;17.48;71.30;98737.69;5054198;28;8939;-79
2022/05/29 08:44:15;;;;;;;;;30.40;29.80;;;;;17.44;71.88;98722.94;5044821;28;8846;-78
2022/05/29 08:46:49;;;;;;;;;26.20;26.20;;;;;17.21;70.76;98707.25;5068190;28;8973;-79
2022/05/29 08:49:22;;;;;;;;;19.80;18.40;;;;;17.21;70.58;98757.31;5069373;28;8886;-77
2022/05/29 08:52:24;;;;;;;;;20.80;20.00;;;;;17.19;68.79;98886.47;5064887;28;8868;-79
2022/05/29 08:54:57;;;;;;;;;20.20;18.80;;;;;17.40;71.40;98889.19;5011555;28;8824;-78
2022/05/29 08:57:55;;;;;;;;;25.60;24.20;;;;;17.63;71.12;98886.50;5011311;28;8867;-79
2022/05/29 09:00:33;;;;;;;;;19.60;19.60;;;;;17.74;67.96;98893.97;4995726;28;8837;-80
2022/05/29 09:03:25;;;;;;;;;28.00;25.60;;;;;17.81;67.32;98892.81;5013859;28;8961;-78
2022/05/29 09:05:59;;;;;;;;;63.50;52.00;;;;;17.82;68.77;98886.59;4999128;28;9672;-80
2022/05/29 09:08:34;;;;;;;;;37.50;32.25;;;;;17.26;68.97;98880.03;5008372;28;8852;-81
2022/05/29 09:11:07;;;;;;;;;31.00;28.50;;;;;17.61;70.28;98876.94;5010200;28;8880;-80
2022/05/29 09:13:40;;;;;;;;;32.00;29.25;;;;;17.83;70.68;98883.06;5024385;28;8949;-78
2022/05/29 09:16:15;;;;;;;;;28.00;27.40;;;;;18.09;68.46;98889.94;4991862;28;8868;-78
2022/05/29 09:18:52;;;;;;;;;25.20;24.00;;;;;18.34;66.95;98882.75;5009422;28;9036;-77
2022/05/29 09:21:52;;;;;;;;;22.40;22.40;;;;;18.09;67.17;98883.78;5026740;28;8879;-79
2022/05/29 09:24:35;;;;;;;;;25.20;25.20;;;;;17.86;68.69;98888.25;5013910;28;8878;-78
2022/05/29 09:27:05;;;;;;;;;24.20;23.40;;;;;17.83;68.76;98887.47;4965406;28;8898;-78
2022/05/29 09:29:36;;;;;;;;;20.60;20.40;;;;;17.36;67.60;98883.19;4984918;28;8963;-80
2022/05/29 09:32:10;;;;;;;;;21.20;21.00;;;;;17.31;66.54;98869.31;5018256;28;8904;-78
2022/05/29 09:34:39;;;;;;;;;22.20;21.80;;;;;17.01;67.08;98873.97;5047505;28;8835;-78
2022/05/29 09:37:18;;;;;;;;;22.40;22.40;;;;;16.74;68.12;98874.91;5028137;28;8857;-79
2022/05/29 09:39:55;;;;;;;;;20.00;19.20;;;;;16.54;71.21;98874.75;5002449;28;8873;-78
2022/05/29 09:42:27;;;;;;;;;22.60;22.00;;;;;16.69;71.25;98866.34;5020085;28;8860;-78
2022/05/29 09:45:07;;;;;;;;;46.00;38.00;;;;;17.01;70.85;98869.56;4998119;28;8868;-81
2022/05/29 09:50:37;;;;;;;;;20.80;19.20;;;;;16.32;69.37;98856.25;5000387;28;8878;-78
2022/05/29 09:53:11;;;;;;;;;18.60;17.80;;;;;16.57;69.42;98857.09;4973669;28;8875;-78
2022/05/29 09:55:51;;;;;;;;;23.20;23.20;;;;;16.96;69.59;98847.81;4999465;28;8912;-78
2022/05/29 09:58:25;;;;;;;;;21.00;19.00;;;;;17.03;69.31;98849.31;5004837;28;9981;-78
2022/05/29 10:01:01;;;;;;;;;20.20;20.20;;;;;17.30;68.48;98847.38;5030350;28;9023;-78
2022/05/29 10:03:42;;;;;;;;;19.20;18.00;;;;;17.80;61.39;98834.84;5037028;28;8892;-80
2022/05/29 10:06:16;;;;;;;;;17.00;15.80;;;;;18.34;60.83;98837.88;5030118;28;8849;-81
2022/05/29 10:08:46;;;;;;;;;28.20;26.60;;;;;18.89;62.84;98824.88;5017062;28;8854;-82
2022/05/29 10:11:18;;;;;;;;;50.25;42.50;;;;;19.41;60.41;98829.47;5043828;28;8865;-79
2022/05/29 10:13:48;;;;;;;;;29.00;28.00;;;;;19.85;56.41;98822.03;5033545;28;8861;-81
2022/05/29 10:16:32;;;;;;;;;21.00;18.60;;;;;20.19;55.36;98828.25;5070132;28;8857;-82
2022/05/29 10:19:04;;;;;;;;;21.40;19.00;;;;;20.52;55.00;98827.41;5069641;28;8870;-83
2022/05/29 10:21:42;;;;;;;;;19.40;19.40;;;;;20.98;56.42;98816.16;5049394;28;8854;-82
2022/05/29 10:24:20;;;;;;;;;18.80;18.20;;;;;21.27;52.63;98801.28;5067520;28;8834;-81
2022/05/29 10:26:51;;;;;;;;;22.20;20.80;;;;;21.57;53.79;98806.69;5064677;28;8965;-83
2022/05/29 10:29:27;;;;;;;;;20.40;19.60;;;;;21.90;50.08;98800.34;5068769;28;8862;-82
2022/05/29 10:31:57;;;;;;;;;20.20;19.40;;;;;22.02;48.57;98797.91;5063848;28;8965;-82
2022/05/29 10:34:31;;;;;;;;;15.80;15.80;;;;;21.94;46.35;98801.84;5056540;28;9004;-80
2022/05/29 10:37:01;;;;;;;;;15.40;15.00;;;;;22.15;47.49;98802.38;5063285;28;8870;-80
2022/05/29 10:39:32;;;;;;;;;18.20;17.20;;;;;22.36;47.14;98783.47;5076915;28;8861;-82
2022/05/29 10:42:07;;;;;;;;;19.20;18.20;;;;;22.51;46.55;98774.56;5069759;28;8943;-83
2022/05/29 10:44:40;;;;;;;;;17.60;17.60;;;;;22.70;46.16;98776.94;5069588;28;8988;-81
2022/05/29 10:47:23;;;;;;;;;18.00;17.00;;;;;22.88;45.66;98780.22;5066606;28;8858;-80
2022/05/29 10:50:08;;;;;;;;;20.80;19.00;;;;;22.78;43.57;98779.09;5066651;28;8882;-82
2022/05/29 10:53:06;;;;;;;;;16.80;15.80;;;;;22.69;44.74;98777.88;5080875;28;8852;-82
2022/05/29 10:55:52;;;;;;;;;16.20;16.20;;;;;22.78;44.77;98768.47;5066397;28;8862;-80
2022/05/29 10:58:38;;;;;;;;;19.80;17.40;;;;;22.78;46.11;98761.34;5033093;28;8851;-83
2022/05/29 11:04:33;;;;;;;;;16.00;16.00;;;;;22.67;44.07;98747.03;5049092;28;8838;-83
2022/05/29 11:07:34;;;;;;;;;17.20;16.40;;;;;22.65;46.45;98733.00;5051058;28;8876;-85
2022/05/29 11:10:17;;;;;;;;;22.80;21.80;;;;;22.45;46.63;98736.88;5041812;28;8892;-81
2022/05/29 11:13:05;;;;;;;;;27.60;26.80;;;;;22.25;49.67;98731.03;5009689;28;9734;-83
2022/05/29 11:15:45;;;;;;;;;19.20;19.00;;;;;22.09;49.06;98731.06;5043896;28;8867;-84
2022/05/29 11:18:37;;;;;;;;;60.00;48.50;;;;;21.91;50.31;98727.72;5032186;28;8894;-82
2022/05/29 11:21:17;;;;;;;;;39.50;35.00;;;;;21.57;49.44;98735.03;5033984;28;8879;-81
2022/05/29 11:24:22;;;;;;;;;24.00;23.60;;;;;19.88;53.40;98738.13;5021076;28;8862;-80
2022/05/29 11:27:13;;;;;;;;;21.60;20.20;;;;;18.66;57.92;98746.66;5013669;28;8854;-82
2022/05/29 11:30:05;;;;;;;;;24.00;23.20;;;;;18.23;61.92;98757.38;5022754;28;8950;-80
2022/05/29 11:33:03;;;;;;;;;22.20;22.00;;;;;18.02;65.82;98761.81;5021952;28;9015;-82
2022/05/29 11:36:05;;;;;;;;;23.20;22.00;;;;;18.01;64.71;98760.09;5002934;28;8856;-84
2022/05/29 11:39:01;;;;;;;;;29.50;28.75;;;;;17.87;65.88;98751.94;5029126;28;8945;-85
2022/05/29 11:41:36;;;;;;;;;53.75;42.25;;;;;17.91;68.49;98708.69;5026971;28;8858;-84
2022/05/29 11:44:18;;;;;;;;;36.75;33.25;;;;;18.01;69.51;98707.34;5051206;28;8892;-82
2022/05/29 11:52:38;;;;;;;;;30.00;28.50;;;;;18.47;70.50;98722.91;5012369;28;8983;-70
2022/05/29 11:55:13;;;;;;;;;25.20;24.00;;;;;18.64;66.94;98722.13;5043443;28;8950;-74
2022/05/29 11:57:48;;;;;;;;;23.20;23.20;;;;;18.88;66.83;98721.00;5043058;28;8968;-71
2022/05/29 12:00:40;;;;;;;;;29.00;27.50;;;;;19.12;65.76;98720.72;5044382;28;8956;-71
2022/05/29 12:03:23;;;;;;;;;22.80;22.80;;;;;19.27;64.63;98713.81;5035062;28;8885;-70
2022/05/29 12:05:58;;;;;;;;;26.20;22.80;;;;;19.60;65.41;98706.00;5027492;28;8901;-70
2022/05/29 12:08:34;;;;;;;;;23.80;23.80;;;;;20.04;65.77;98700.19;5011703;28;8957;-79
2022/05/29 12:11:15;;;;;;;;;19.60;19.40;;;;;20.41;62.86;98708.81;4989747;28;8850;-79
2022/05/29 12:13:56;;;;;;;;;36.75;32.25;;;;;20.70;60.37;98708.19;5042592;28;8850;-81
2022/05/29 12:16:29;;;;;;;;;27.75;27.25;;;;;20.91;58.04;98704.34;5016364;28;8892;-81
2022/05/29 12:19:01;;;;;;;;;21.00;19.00;;;;;21.10;57.36;98698.00;5027969;28;9580;-78
2022/05/29 12:21:35;;;;;;;;;22.00;21.40;;;;;21.30;57.96;98697.66;5028689;28;8853;-78
2022/05/29 12:24:15;;;;;;;;;61.00;50.25;;;;;21.46;55.61;98687.06;5046218;28;8889;-81
2022/05/29 12:26:48;;;;;;;;;64.33;52.33;;;;;21.48;55.76;98679.88;5049852;28;8852;-80
2022/05/29 12:29:21;;;;;;;;;32.25;30.25;;;;;21.51;55.38;98678.81;5048099;28;8972;-79